Time;durP1;ratioP1;P1;durP2;ratioP2;P2;SDS_P1;SDS_P2;PMS_P1;PMS_P2;Temp;Humidity;BMP_temperature;BMP_pressure;BME280_temperature;BME280_humidity;BME280_pressure;Samples;Min_cycle;Max_cycle;Signal;HPM_P1;HPM_P2
2023/06/24 00:00:31;;;;;;;6.73;4.40;;;19.40;99.90;;;;;;5095770;28;20315;-86
2023/06/24 00:03:01;;;;;;;5.60;3.93;;;19.40;99.90;;;;;;5095795;28;20273;-86
2023/06/24 00:05:28;;;;;;;5.80;4.03;;;19.40;99.90;;;;;;5077527;28;20312;-85
2023/06/24 00:07:56;;;;;;;7.47;4.40;;;19.40;99.90;;;;;;5077245;28;20577;-85
2023/06/24 00:10:24;;;;;;;5.67;4.37;;;19.40;99.90;;;;;;5077270;28;20697;-85
2023/06/24 00:12:50;;;;;;;5.13;3.80;;;19.40;99.90;;;;;;5060847;28;20193;-86
2023/06/24 00:15:18;;;;;;;7.30;4.17;;;19.50;99.90;;;;;;5077179;28;20316;-85
2023/06/24 00:17:45;;;;;;;5.07;3.90;;;19.40;99.90;;;;;;5060569;28;20280;-85
2023/06/24 00:20:14;;;;;;;8.33;4.07;;;19.40;99.90;;;;;;5077061;28;20221;-85
2023/06/24 00:22:43;;;;;;;7.70;4.03;;;19.40;99.90;;;;;;5077483;28;20243;-86
2023/06/24 00:25:11;;;;;;;6.37;3.77;;;19.50;99.90;;;;;;5077173;28;20227;-86
2023/06/24 00:27:38;;;;;;;7.00;4.30;;;19.50;99.90;;;;;;5095177;28;20235;-86
2023/06/24 00:30:06;;;;;;;5.77;4.03;;;19.50;99.90;;;;;;5076891;28;20765;-86
2023/06/24 00:32:33;;;;;;;6.73;4.10;;;19.50;99.90;;;;;;5060369;28;20197;-85
2023/06/24 00:35:00;;;;;;;6.93;4.17;;;19.50;99.90;;;;;;5076823;28;20312;-85
2023/06/24 00:37:27;;;;;;;5.23;3.83;;;19.60;99.90;;;;;;5076855;28;20666;-86
2023/06/24 00:39:54;;;;;;;5.43;3.87;;;19.60;99.90;;;;;;5094978;28;20255;-87
2023/06/24 00:42:21;;;;;;;4.57;3.73;;;19.60;99.90;;;;;;5095002;28;20190;-86
2023/06/24 00:44:48;;;;;;;7.67;4.30;;;19.60;99.90;;;;;;5076961;28;20197;-86
2023/06/24 00:47:16;;;;;;;6.10;4.13;;;19.60;99.90;;;;;;5060571;28;20260;-86
2023/06/24 00:49:45;;;;;;;6.57;4.13;;;19.60;99.90;;;;;;5060659;28;20562;-86
2023/06/24 00:52:16;;;;;;;6.77;4.53;;;19.60;99.90;;;;;;5060087;28;20247;-86
2023/06/24 00:54:43;;;;;;;5.63;4.10;;;19.70;99.90;;;;;;5076650;28;20259;-86
2023/06/24 00:57:11;;;;;;;6.50;4.10;;;19.70;99.90;;;;;;5094725;28;20226;-86
2023/06/24 00:59:42;;;;;;;5.00;3.63;;;19.60;99.90;;;;;;5076334;28;20663;-87
2023/06/24 01:02:10;;;;;;;5.50;3.70;;;19.60;99.90;;;;;;5060006;28;20221;-87
2023/06/24 01:04:38;;;;;;;6.40;4.47;;;19.70;99.90;;;;;;5076743;28;20203;-87
2023/06/24 01:07:06;;;;;;;7.03;4.67;;;19.70;99.90;;;;;;5058743;28;20197;-86
2023/06/24 01:09:33;;;;;;;5.80;4.07;;;19.70;99.90;;;;;;5094635;28;20213;-86
2023/06/24 01:12:01;;;;;;;6.73;4.37;;;19.70;99.90;;;;;;5076386;28;20182;-86
2023/06/24 01:14:28;;;;;;;6.83;4.30;;;19.70;99.90;;;;;;5059656;28;20208;-86
2023/06/24 01:17:15;;;;;;;7.77;4.30;;;19.70;99.90;;;;;;5043358;28;20213;-87
2023/06/24 01:20:09;;;;;;;8.63;4.57;;;19.70;99.90;;;;;;5059622;28;20634;-85
2023/06/24 01:22:55;;;;;;;6.93;4.40;;;19.70;99.90;;;;;;5094313;28;20170;-86
2023/06/24 01:25:34;;;;;;;6.53;4.23;;;19.70;99.90;;;;;;5076228;28;20213;-86
2023/06/24 01:28:22;;;;;;;6.40;4.40;;;19.70;99.90;;;;;;5076066;28;20270;-86
2023/06/24 01:31:02;;;;;;;6.17;4.23;;;19.70;99.90;;;;;;5075855;28;20304;-86
2023/06/24 01:33:45;;;;;;;5.67;4.20;;;19.70;99.90;;;;;;5076290;28;20198;-86
2023/06/24 01:36:16;;;;;;;6.43;3.90;;;19.60;99.90;;;;;;5059214;28;20720;-86
2023/06/24 01:38:55;;;;;;;7.43;4.20;;;19.60;99.90;;;;;;5060376;28;20182;-85
2023/06/24 01:41:26;;;;;;;5.63;3.90;;;19.60;99.90;;;;;;5059213;28;20213;-85
2023/06/24 01:43:54;;;;;;;6.73;4.30;;;19.60;99.90;;;;;;5075665;28;20592;-85
2023/06/24 01:46:23;;;;;;;6.90;4.20;;;19.70;99.90;;;;;;5075387;28;20687;-84
2023/06/24 01:48:56;;;;;;;6.07;4.07;;;19.70;99.90;;;;;;5093707;28;20251;-85
2023/06/24 01:51:24;;;;;;;5.07;3.67;;;19.70;99.90;;;;;;5093674;28;20206;-85
2023/06/24 01:54:06;;;;;;;6.23;3.97;;;19.70;99.90;;;;;;5075419;28;20288;-85
2023/06/24 01:56:36;;;;;;;5.93;4.03;;;19.70;99.90;;;;;;5093582;28;20214;-85
2023/06/24 01:59:04;;;;;;;5.23;4.20;;;19.60;99.90;;;;;;5093536;28;20186;-86
2023/06/24 02:01:33;;;;;;;8.13;4.10;;;19.60;99.90;;;;;;5074177;28;20278;-85
2023/06/24 02:04:02;;;;;;;6.80;4.00;;;19.50;99.90;;;;;;5074900;28;20197;-85
2023/06/24 02:06:30;;;;;;;6.07;3.87;;;19.60;99.90;;;;;;5093493;28;20213;-85
2023/06/24 02:09:00;;;;;;;6.73;3.97;;;19.60;99.90;;;;;;5058574;28;20232;-86
2023/06/24 02:11:29;;;;;;;6.67;3.90;;;19.50;99.90;;;;;;5075345;28;20250;-86
2023/06/24 02:13:59;;;;;;;6.60;4.23;;;19.50;99.90;;;;;;5058496;28;20304;-85
2023/06/24 02:16:27;;;;;;;5.33;4.07;;;19.40;99.90;;;;;;5074890;28;20230;-84
2023/06/24 02:18:56;;;;;;;5.87;3.73;;;19.40;99.90;;;;;;5058226;28;20200;-85
2023/06/24 02:21:24;;;;;;;6.10;4.20;;;19.40;99.90;;;;;;5075275;28;20270;-85
2023/06/24 02:23:52;;;;;;;5.33;3.80;;;19.40;99.90;;;;;;5075160;28;20216;-85
2023/06/24 02:26:21;;;;;;;5.00;3.77;;;19.40;99.90;;;;;;5074927;28;20224;-85
2023/06/24 02:28:49;;;;;;;5.80;4.17;;;19.40;99.90;;;;;;5093199;28;20684;-85
2023/06/24 02:31:17;;;;;;;7.97;3.87;;;19.40;99.90;;;;;;5092896;28;20209;-85
2023/06/24 02:33:44;;;;;;;6.23;3.90;;;19.40;99.90;;;;;;5074876;28;20720;-85
2023/06/24 02:36:12;;;;;;;6.13;4.20;;;19.30;99.90;;;;;;5058050;28;20680;-85
2023/06/24 02:38:38;;;;;;;6.47;3.90;;;19.30;99.90;;;;;;5092829;28;20190;-85
2023/06/24 02:41:06;;;;;;;5.80;3.90;;;19.30;99.90;;;;;;5092584;28;20209;-85
2023/06/24 02:43:35;;;;;;;4.80;3.20;;;19.30;99.90;;;;;;5058045;28;20193;-85
2023/06/24 02:46:05;;;;;;;10.23;4.53;;;19.30;99.90;;;;;;5074224;28;20224;-85
2023/06/24 02:48:34;;;;;;;6.03;3.90;;;19.30;99.90;;;;;;5074453;28;20217;-86
2023/06/24 02:51:03;;;;;;;7.37;3.80;;;19.30;99.90;;;;;;5074350;28;20224;-85
2023/06/24 02:53:31;;;;;;;6.30;4.00;;;19.30;99.90;;;;;;5074385;28;20284;-85
2023/06/24 02:55:58;;;;;;;6.77;3.83;;;19.20;99.90;;;;;;5092456;28;20209;-86
2023/06/24 02:58:31;;;;;;;5.30;3.60;;;19.30;99.90;;;;;;5074937;28;20192;-85
2023/06/24 03:01:06;;;;;;;8.77;3.67;;;19.30;99.90;;;;;;5074247;28;20304;-86
2023/06/24 03:03:35;;;;;;;8.13;4.30;;;19.30;99.90;;;;;;5074240;28;20203;-85
2023/06/24 03:06:03;;;;;;;5.90;4.00;;;19.30;99.90;;;;;;5092318;28;20274;-84
2023/06/24 03:08:30;;;;;;;6.73;3.97;;;19.30;99.90;;;;;;5074610;28;20222;-85
2023/06/24 03:10:58;;;;;;;8.83;4.27;;;19.30;99.90;;;;;;5074026;28;20243;-85
2023/06/24 03:13:26;;;;;;;7.30;4.20;;;19.30;99.90;;;;;;5074075;28;20641;-85
2023/06/24 03:15:53;;;;;;;6.87;4.00;;;19.30;99.90;;;;;;5073952;28;20214;-85
2023/06/24 03:18:20;;;;;;;6.80;4.30;;;19.20;99.90;;;;;;5073978;28;20602;-85
2023/06/24 03:20:47;;;;;;;6.77;4.20;;;19.20;99.90;;;;;;5073991;28;20300;-85
2023/06/24 03:23:14;;;;;;;6.20;4.40;;;19.30;99.90;;;;;;5074043;28;20225;-85
2023/06/24 03:25:41;;;;;;;5.97;4.30;;;19.30;99.90;;;;;;5074174;28;20206;-85
2023/06/24 03:28:08;;;;;;;8.60;4.67;;;19.30;99.90;;;;;;5057178;28;20210;-85
2023/06/24 03:30:35;;;;;;;8.00;4.50;;;19.30;99.90;;;;;;5077242;28;20275;-85
2023/06/24 03:33:02;;;;;;;7.93;4.70;;;19.30;99.90;;;;;;5096265;28;20189;-85
2023/06/24 03:35:32;;;;;;;6.70;4.30;;;19.30;99.90;;;;;;5077894;28;20692;-84
2023/06/24 03:37:59;;;;;;;8.63;4.73;;;19.20;99.90;;;;;;5078264;28;20185;-84
2023/06/24 03:40:26;;;;;;;6.17;4.37;;;19.20;99.90;;;;;;5077833;28;20259;-85
2023/06/24 03:42:53;;;;;;;9.73;4.90;;;19.20;99.90;;;;;;5077942;28;20193;-85
2023/06/24 03:45:20;;;;;;;7.47;4.60;;;19.10;99.90;;;;;;5095980;28;20212;-85
2023/06/24 03:47:47;;;;;;;7.30;4.30;;;19.20;99.90;;;;;;5077879;28;20217;-85
2023/06/24 03:50:15;;;;;;;9.00;4.67;;;19.20;99.90;;;;;;5095711;28;20224;-85
2023/06/24 03:52:44;;;;;;;6.90;4.30;;;19.20;99.90;;;;;;5095951;28;20204;-85
2023/06/24 03:55:11;;;;;;;7.07;4.43;;;19.30;99.90;;;;;;5077884;28;20358;-84
2023/06/24 03:57:38;;;;;;;6.77;4.90;;;19.30;99.90;;;;;;5077692;28;20193;-85
2023/06/24 04:00:20;;;;;;;7.63;4.70;;;19.30;99.90;;;;;;5060934;28;20213;-85
2023/06/24 04:02:47;;;;;;;7.23;4.87;;;19.40;99.90;;;;;;5077902;28;20193;-85
2023/06/24 04:05:14;;;;;;;7.33;4.40;;;19.40;99.90;;;;;;5077518;28;20221;-84
2023/06/24 04:07:41;;;;;;;8.50;4.90;;;19.50;99.90;;;;;;5061229;28;20224;-84
2023/06/24 04:10:10;;;;;;;7.47;4.90;;;19.50;99.90;;;;;;5060806;28;20225;-84
2023/06/24 04:12:37;;;;;;;6.73;4.47;;;19.60;99.90;;;;;;5077642;28;20186;-85
2023/06/24 04:15:05;;;;;;;6.83;4.37;;;19.70;99.90;;;;;;5077288;28;20303;-85
2023/06/24 04:17:32;;;;;;;8.20;5.30;;;19.80;99.90;;;;;;5077254;28;20190;-84
2023/06/24 04:20:00;;;;;;;6.33;4.90;;;19.90;99.90;;;;;;5077399;28;20212;-85
2023/06/24 04:22:27;;;;;;;8.53;5.10;;;20.00;99.90;;;;;;5077592;28;20229;-83
2023/06/24 04:24:53;;;;;;;7.07;4.50;;;20.00;99.90;;;;;;5059552;28;20225;-85
2023/06/24 04:27:20;;;;;;;6.77;4.30;;;20.10;99.90;;;;;;5076509;28;20296;-85
2023/06/24 04:29:47;;;;;;;5.87;4.20;;;20.20;99.90;;;;;;5077202;28;20312;-85
2023/06/24 04:32:14;;;;;;;6.83;4.70;;;20.30;99.90;;;;;;5076965;28;20239;-85
2023/06/24 04:34:41;;;;;;;8.07;4.67;;;20.40;99.90;;;;;;5076849;28;20664;-84
2023/06/24 04:37:08;;;;;;;8.00;4.80;;;20.50;99.90;;;;;;5076904;28;20330;-85
2023/06/24 04:39:35;;;;;;;6.57;4.80;;;20.60;99.90;;;;;;5076701;28;20744;-84
2023/06/24 04:42:02;;;;;;;6.63;4.43;;;20.60;99.90;;;;;;5076769;28;20194;-84
2023/06/24 04:44:29;;;;;;;8.47;4.53;;;20.60;99.90;;;;;;5076826;28;20221;-84
2023/06/24 04:46:56;;;;;;;8.93;5.13;;;20.50;99.90;;;;;;5073225;28;20657;-85
2023/06/24 04:49:23;;;;;;;8.50;4.60;;;20.30;99.90;;;;;;5073675;28;20232;-85
2023/06/24 04:51:50;;;;;;;13.07;5.13;;;20.20;99.90;;;;;;5073198;28;20312;-85
2023/06/24 04:54:17;;;;;;;6.40;4.40;;;20.30;99.90;;;;;;5056643;28;20230;-84
2023/06/24 04:56:45;;;;;;;5.90;4.30;;;20.40;99.90;;;;;;5056703;28;20255;-84
2023/06/24 04:59:15;;;;;;;7.07;4.30;;;20.40;99.90;;;;;;5074576;28;20194;-84
2023/06/24 05:01:43;;;;;;;7.77;4.63;;;20.60;99.90;;;;;;5073070;28;20222;-88
2023/06/24 05:04:09;;;;;;;6.30;4.43;;;20.50;99.90;;;;;;5073053;28;20200;-88
2023/06/24 05:06:36;;;;;;;9.23;4.77;;;20.60;99.90;;;;;;5072954;28;20681;-87
2023/06/24 05:09:03;;;;;;;7.20;4.73;;;20.70;99.90;;;;;;5072938;28;20214;-87
2023/06/24 05:11:30;;;;;;;7.57;4.50;;;20.80;99.90;;;;;;5073106;28;20313;-87
2023/06/24 05:13:58;;;;;;;6.27;4.57;;;20.90;99.90;;;;;;5074487;28;20198;-87
2023/06/24 05:16:25;;;;;;;6.47;4.60;;;21.00;99.90;;;;;;5074181;28;20294;-88
2023/06/24 05:18:52;;;;;;;7.53;4.90;;;21.00;99.90;;;;;;5074223;28;20267;-87
2023/06/24 05:21:18;;;;;;;7.37;4.53;;;21.10;99.90;;;;;;5072662;28;20217;-88
2023/06/24 05:23:45;;;;;;;6.93;4.00;;;21.00;99.90;;;;;;5056153;28;20213;-88
2023/06/24 05:26:13;;;;;;;6.90;4.00;;;21.10;99.90;;;;;;5039498;28;20218;-87
2023/06/24 05:28:40;;;;;;;6.23;4.00;;;21.20;99.90;;;;;;5072509;28;20289;-87
2023/06/24 05:31:07;;;;;;;7.60;3.90;;;21.30;99.90;;;;;;5072509;28;20271;-88
2023/06/24 05:33:34;;;;;;;6.43;3.80;;;21.30;99.90;;;;;;5055892;28;20193;-88
2023/06/24 05:36:01;;;;;;;6.07;4.20;;;21.40;99.90;;;;;;5072494;28;20218;-89
2023/06/24 05:38:28;;;;;;;8.10;3.90;;;21.40;99.90;;;;;;5055768;28;20285;-89
2023/06/24 05:40:55;;;;;;;7.20;4.30;;;21.40;99.90;;;;;;5072325;28;20254;-88
2023/06/24 05:43:22;;;;;;;7.00;4.43;;;21.50;99.90;;;;;;5072416;28;20268;-88
2023/06/24 05:45:49;;;;;;;6.57;4.13;;;21.50;99.90;;;;;;5072254;28;20260;-88
2023/06/24 05:48:16;;;;;;;7.60;4.30;;;21.70;99.90;;;;;;5058920;28;20197;-88
2023/06/24 05:50:43;;;;;;;6.30;4.00;;;21.80;99.90;;;;;;5075984;28;20230;-88
2023/06/24 05:53:10;;;;;;;8.17;4.57;;;21.80;99.90;;;;;;5058460;28;20204;-90
2023/06/24 05:55:37;;;;;;;5.43;4.10;;;21.80;99.90;;;;;;5075390;28;20224;-89
2023/06/24 05:58:04;;;;;;;6.43;4.40;;;21.80;99.90;;;;;;5075448;28;20679;-86
2023/06/24 06:00:31;;;;;;;7.43;4.30;;;22.00;99.90;;;;;;5075296;28;20692;-87
2023/06/24 06:02:58;;;;;;;7.47;4.43;;;22.20;99.90;;;;;;5059134;28;20228;-87
2023/06/24 06:05:25;;;;;;;11.37;4.50;;;22.30;99.90;;;;;;5075325;28;20214;-88
2023/06/24 06:07:53;;;;;;;7.40;3.97;;;22.40;99.90;;;;;;5075325;28;20195;-87
2023/06/24 06:10:21;;;;;;;8.82;4.10;;;22.40;99.90;;;;;;5059380;28;20257;-88
2023/06/24 06:12:48;;;;;;;6.17;4.20;;;22.40;99.90;;;;;;5093478;28;20200;-88
2023/06/24 06:15:15;;;;;;;6.33;4.40;;;22.50;99.90;;;;;;5058483;28;20218;-87
2023/06/24 06:17:42;;;;;;;7.63;4.40;;;22.50;99.90;;;;;;5075289;28;20234;-88
2023/06/24 06:20:09;;;;;;;11.73;4.57;;;22.60;99.90;;;;;;5074926;28;20313;-88
2023/06/24 06:22:37;;;;;;;7.30;4.10;;;22.70;99.90;;;;;;5093349;28;20221;-88
2023/06/24 06:25:05;;;;;;;6.68;4.07;;;22.80;99.90;;;;;;5092931;28;20209;-89
2023/06/24 06:27:33;;;;;;;6.03;4.20;;;22.80;99.90;;;;;;5074870;28;20288;-88
2023/06/24 06:30:00;;;;;;;8.43;4.40;;;22.90;99.90;;;;;;5074657;28;20338;-88
2023/06/24 06:32:27;;;;;;;7.53;4.60;;;23.00;99.90;;;;;;5074555;28;20189;-89
2023/06/24 06:34:58;;;;;;;6.27;4.60;;;22.90;99.90;;;;;;5058582;28;20214;-91
2023/06/24 06:37:24;;;;;;;5.93;4.20;;;23.10;99.90;;;;;;5074801;28;20258;-90
2023/06/24 06:39:52;;;;;;;6.70;4.10;;;23.30;99.90;;;;;;5074778;28;20197;-91
2023/06/24 06:42:19;;;;;;;6.78;4.55;;;23.40;99.90;;;;;;5092695;28;20197;-90
2023/06/24 06:44:46;;;;;;;7.55;4.28;;;23.30;99.90;;;;;;5074305;28;20243;-90
2023/06/24 06:47:13;;;;;;;7.30;4.47;;;23.30;99.90;;;;;;5074295;28;20298;-91
2023/06/24 06:49:40;;;;;;;6.47;4.13;;;23.40;99.90;;;;;;5057605;28;20291;-90
2023/06/24 06:52:07;;;;;;;8.53;4.80;;;23.40;99.90;;;;;;5092702;28;20193;-90
2023/06/24 06:54:34;;;;;;;7.27;4.30;;;23.40;99.90;;;;;;5092292;28;20295;-90
2023/06/24 06:57:03;;;;;;;5.90;4.40;;;23.50;99.90;;;;;;5074147;28;20288;-89
2023/06/24 06:59:31;;;;;;;7.15;4.82;;;23.60;99.90;;;;;;5057568;28;20197;-88
2023/06/24 07:01:58;;;;;;;8.20;5.03;;;23.60;99.90;;;;;;5074345;28;20232;-89
2023/06/24 07:04:25;;;;;;;10.80;5.03;;;23.70;99.90;;;;;;5073819;28;20240;-88
2023/06/24 07:06:52;;;;;;;7.18;4.55;;;23.70;99.90;;;;;;5074223;28;20711;-88
2023/06/24 07:09:19;;;;;;;5.80;4.30;;;23.80;99.90;;;;;;5074104;28;20206;-89
2023/06/24 07:11:46;;;;;;;7.57;4.47;;;23.90;99.90;;;;;;5057617;28;20326;-88
2023/06/24 07:14:13;;;;;;;6.20;4.68;;;24.10;99.90;;;;;;5074157;28;20193;-88
2023/06/24 07:16:40;;;;;;;5.93;4.00;;;24.10;99.90;;;;;;5092146;28;20286;-88
2023/06/24 07:19:07;;;;;;;8.38;4.90;;;24.10;99.90;;;;;;5074320;28;20186;-88
2023/06/24 07:21:34;;;;;;;6.70;4.80;;;24.10;99.90;;;;;;5057336;28;20248;-89
2023/06/24 07:24:01;;;;;;;6.45;4.53;;;24.30;99.90;;;;;;5057335;28;20660;-87
2023/06/24 07:26:30;;;;;;;7.57;4.80;;;23.90;99.90;;;;;;5073646;28;20213;-86
2023/06/24 07:29:00;;;;;;;7.53;4.65;;;23.80;99.90;;;;;;5056949;28;20219;-87
2023/06/24 07:31:36;;;;;;;8.00;4.70;;;23.90;99.90;;;;;;5092112;28;20205;-88
2023/06/24 07:34:04;;;;;;;6.80;4.50;;;23.40;99.90;;;;;;5058045;28;20224;-87
2023/06/24 07:36:31;;;;;;;8.05;4.60;;;23.20;99.90;;;;;;5057596;28;20225;-88
2023/06/24 07:38:58;;;;;;;6.72;4.35;;;23.60;99.90;;;;;;5091990;28;20697;-85
2023/06/24 07:41:25;;;;;;;7.55;4.88;;;23.80;99.90;;;;;;5057245;28;20249;-88
2023/06/24 07:43:52;;;;;;;8.10;5.10;;;23.80;99.90;;;;;;5091793;28;20185;-87
2023/06/24 07:46:19;;;;;;;9.55;4.68;;;23.90;99.90;;;;;;5073743;28;20264;-85
2023/06/24 07:48:45;;;;;;;7.72;4.47;;;24.00;99.90;;;;;;5073569;28;20300;-86
2023/06/24 07:51:12;;;;;;;6.80;4.85;;;23.60;99.90;;;;;;5073746;28;20328;-86
2023/06/24 07:53:39;;;;;;;7.37;4.30;;;23.80;99.90;;;;;;5073486;28;20232;-86
2023/06/24 07:56:06;;;;;;;9.18;4.57;;;24.00;99.90;;;;;;5091712;28;20657;-86
2023/06/24 07:58:35;;;;;;;7.60;4.93;;;24.30;99.90;;;;;;5073671;28;20194;-87
2023/06/24 08:01:02;;;;;;;7.10;4.25;;;23.90;99.90;;;;;;5073378;28;20632;-88
2023/06/24 08:03:29;;;;;;;6.40;4.30;;;24.00;99.90;;;;;;5091665;28;20263;-89
2023/06/24 08:05:56;;;;;;;8.38;5.13;;;24.40;99.90;;;;;;5073715;28;20271;-86
2023/06/24 08:08:23;;;;;;;8.02;5.25;;;24.50;99.90;;;;;;5057042;28;20205;-87
2023/06/24 08:10:50;;;;;;;8.63;4.95;;;24.50;99.90;;;;;;5074936;28;20777;-87
2023/06/24 08:13:17;;;;;;;6.53;4.65;;;24.30;99.90;;;;;;5074657;28;20194;-86
2023/06/24 08:15:44;;;;;;;8.25;4.97;;;24.60;99.90;;;;;;5075078;28;20209;-87
2023/06/24 08:18:11;;;;;;;7.03;5.15;;;24.90;99.90;;;;;;5060875;28;20205;-89
2023/06/24 08:20:38;;;;;;;7.28;4.70;;;24.30;99.90;;;;;;5095170;28;20205;-89
2023/06/24 08:23:05;;;;;;;8.27;4.80;;;24.30;99.90;;;;;;5095323;28;20221;-88
2023/06/24 08:25:32;;;;;;;9.57;5.38;;;24.80;99.90;;;;;;5076942;28;20750;-87
2023/06/24 08:28:00;;;;;;;6.75;4.65;;;24.80;99.90;;;;;;5077064;28;20197;-88
2023/06/24 08:30:27;;;;;;;7.30;4.53;;;24.60;99.90;;;;;;5076737;28;20283;-87
2023/06/24 08:32:55;;;;;;;6.30;4.53;;;24.80;99.90;;;;;;5077032;28;20710;-88
2023/06/24 08:35:22;;;;;;;6.43;4.50;;;24.90;99.90;;;;;;5076923;28;20214;-86
2023/06/24 08:37:49;;;;;;;5.65;4.13;;;25.30;99.90;;;;;;5077257;28;20255;-88
2023/06/24 08:40:17;;;;;;;7.38;4.20;;;25.30;99.90;;;;;;5077776;28;20209;-89
2023/06/24 08:42:44;;;;;;;6.82;5.00;;;25.10;99.90;;;;;;5077111;28;20326;-88
2023/06/24 08:45:11;;;;;;;6.93;4.50;;;25.00;99.90;;;;;;5060086;28;20612;-87
2023/06/24 08:47:39;;;;;;;6.72;4.45;;;25.30;99.90;;;;;;5073452;28;20230;-89
2023/06/24 08:50:13;;;;;;;7.72;4.50;;;25.60;99.90;;;;;;5073164;28;20318;-86
2023/06/24 08:52:44;;;;;;;8.65;4.25;;;25.80;99.90;;;;;;5056568;28;20194;-86
2023/06/24 08:55:15;;;;;;;8.90;4.07;;;25.80;99.90;;;;;;5073107;28;20226;-87
2023/06/24 08:57:42;;;;;;;5.13;3.83;;;25.90;99.90;;;;;;5073223;28;20232;-84
2023/06/24 09:00:10;;;;;;;6.10;3.67;;;26.20;99.90;;;;;;5057012;28;20218;-88
2023/06/24 09:02:38;;;;;;;4.10;3.60;;;26.40;99.90;;;;;;5073275;28;20307;-88
2023/06/24 09:05:07;;;;;;;6.47;3.80;;;26.50;99.90;;;;;;5073149;28;20206;-88
2023/06/24 09:07:34;;;;;;;5.95;3.70;;;26.50;99.90;;;;;;5056932;28;20468;-89
2023/06/24 09:10:01;;;;;;;6.93;4.03;;;26.80;99.90;;;;;;5073059;28;20673;-86
2023/06/24 09:12:32;;;;;;;6.63;3.55;;;27.00;99.90;;;;;;5056004;28;20194;-86
2023/06/24 09:14:59;;;;;;;4.88;3.40;;;27.20;99.90;;;;;;5056545;28;20313;-88
2023/06/24 09:17:27;;;;;;;7.30;3.63;;;26.70;99.90;;;;;;5056174;28;20190;-85
2023/06/24 09:20:04;;;;;;;6.25;3.80;;;26.20;99.90;;;;;;5056338;28;20218;-90
2023/06/24 09:22:31;;;;;;;6.28;3.90;;;25.30;99.90;;;;;;5072893;28;20177;-87
2023/06/24 09:25:02;;;;;;;5.72;3.53;;;25.30;99.90;;;;;;5073740;28;20677;-89
2023/06/24 09:27:33;;;;;;;6.95;3.78;;;25.50;99.90;;;;;;5071888;28;20187;-89
2023/06/24 09:30:00;;;;;;;5.80;3.70;;;25.60;99.90;;;;;;5072331;28;20233;-90
2023/06/24 09:32:30;;;;;;;7.30;4.00;;;26.20;99.90;;;;;;5072296;28;20202;-90
2023/06/24 09:34:57;;;;;;;6.80;3.50;;;26.70;99.90;;;;;;5055887;28;20681;-87
2023/06/24 09:37:30;;;;;;;7.25;4.15;;;26.70;99.90;;;;;;5056372;28;20253;-88
2023/06/24 09:39:58;;;;;;;7.18;3.60;;;26.80;99.80;;;;;;5055637;28;20218;-90
2023/06/24 09:42:26;;;;;;;6.85;3.75;;;26.90;99.90;;;;;;5072414;28;20202;-87
2023/06/24 09:44:56;;;;;;;7.38;3.92;;;26.80;99.50;;;;;;5072214;28;20226;-89
2023/06/24 09:47:27;;;;;;;6.05;3.83;;;27.00;99.90;;;;;;5055543;28;20238;-86
2023/06/24 09:49:54;;;;;;;5.47;3.80;;;27.20;99.90;;;;;;5055432;28;20229;-87
2023/06/24 09:52:23;;;;;;;6.30;3.67;;;26.10;97.10;;;;;;5072257;28;20247;-87
2023/06/24 09:54:54;;;;;;;6.95;3.80;;;26.10;98.40;;;;;;5055677;28;20541;-85
2023/06/24 09:57:31;;;;;;;7.47;4.07;;;26.40;99.90;;;;;;5072498;28;20466;-85
2023/06/24 09:59:59;;;;;;;6.15;3.80;;;26.50;99.50;;;;;;5071911;28;20258;-87
2023/06/24 10:02:26;;;;;;;5.97;4.25;;;26.20;99.40;;;;;;5073175;28;20228;-86
2023/06/24 10:04:54;;;;;;;7.97;3.92;;;26.40;99.90;;;;;;5073271;28;20716;-84
2023/06/24 10:07:22;;;;;;;7.38;4.22;;;26.30;98.70;;;;;;5073069;28;20675;-86
2023/06/24 10:09:49;;;;;;;5.93;3.92;;;26.20;98.70;;;;;;5071630;28;20206;-88
2023/06/24 10:12:16;;;;;;;6.13;3.80;;;26.30;99.50;;;;;;5073041;28;20642;-86
2023/06/24 10:14:43;;;;;;;8.70;4.15;;;26.10;98.60;;;;;;5071464;28;20561;-88
2023/06/24 10:17:11;;;;;;;5.35;4.10;;;25.30;99.30;;;;;;5073114;28;20269;-88
2023/06/24 10:19:39;;;;;;;9.55;6.80;;;25.40;99.90;;;;;;5055300;28;20289;-85
2023/06/24 10:22:10;;;;;;;8.70;5.50;;;25.80;99.90;;;;;;5072792;28;20194;-87
2023/06/24 10:24:41;;;;;;;6.57;4.25;;;25.90;99.80;;;;;;5073348;28;20715;-88
2023/06/24 10:27:13;;;;;;;7.00;3.95;;;25.80;99.50;;;;;;5055035;28;20233;-82
2023/06/24 10:29:46;;;;;;;6.57;4.00;;;26.10;99.90;;;;;;5072984;28;20553;-88
2023/06/24 10:32:13;;;;;;;7.68;3.83;;;25.70;99.80;;;;;;5071333;28;20182;-90
2023/06/24 10:34:41;;;;;;;6.72;4.55;;;25.80;99.90;;;;;;5072557;28;20190;-84
2023/06/24 10:37:35;;;;;;;6.97;3.90;;;25.90;99.90;;;;;;5071051;28;20235;-85
2023/06/24 10:40:03;;;;;;;9.75;3.97;;;25.90;99.30;;;;;;5070331;28;20568;-87
2023/06/24 10:42:35;;;;;;;5.40;3.90;;;25.90;98.90;;;;;;5054553;28;20547;-84
2023/06/24 10:45:23;;;;;;;4.50;3.60;;;26.10;99.70;;;;;;5071192;28;20321;-84
2023/06/24 10:47:56;;;;;;;11.57;4.07;;;26.30;99.00;;;;;;5070270;28;20264;-83
2023/06/24 10:50:23;;;;;;;7.10;4.05;;;26.00;97.60;;;;;;5071055;28;20271;-84
2023/06/24 10:52:56;;;;;;;6.82;4.22;;;25.30;98.00;;;;;;5072195;28;20210;-84
2023/06/24 10:55:27;;;;;;;6.45;3.72;;;25.40;98.30;;;;;;5070822;28;20714;-83
2023/06/24 10:57:54;;;;;;;6.40;3.92;;;25.60;98.80;;;;;;5070799;28;20645;-85
2023/06/24 11:00:22;;;;;;;5.30;4.20;;;25.10;98.80;;;;;;5054321;28;20229;-83
2023/06/24 11:02:49;;;;;;;8.35;4.03;;;25.10;99.30;;;;;;5070707;28;20564;-84
2023/06/24 11:05:16;;;;;;;6.57;4.25;;;25.20;99.40;;;;;;5054323;28;20226;-88
2023/06/24 11:07:43;;;;;;;8.85;4.55;;;25.40;99.90;;;;;;5070938;28;20241;-87
2023/06/24 11:10:12;;;;;;;6.80;4.47;;;25.20;99.80;;;;;;5070911;28;20210;-86
2023/06/24 11:12:41;;;;;;;6.13;4.35;;;24.80;99.90;;;;;;5070763;28;20244;-86
2023/06/24 11:15:10;;;;;;;7.57;4.90;;;24.90;99.90;;;;;;5071045;28;20222;-88
2023/06/24 11:17:38;;;;;;;7.72;3.90;;;25.10;99.90;;;;;;5072123;28;20634;-87
2023/06/24 11:20:14;;;;;;;7.18;4.20;;;25.20;99.90;;;;;;5071891;28;20569;-85
2023/06/24 11:22:43;;;;;;;8.02;4.72;;;25.10;99.90;;;;;;5054370;28;20193;-85
2023/06/24 11:25:24;;;;;;;6.47;4.15;;;25.20;99.90;;;;;;5053892;28;20545;-86
2023/06/24 11:27:54;;;;;;;5.75;4.05;;;24.90;99.90;;;;;;5070695;28;20642;-85
2023/06/24 11:30:21;;;;;;;6.03;4.00;;;25.00;99.90;;;;;;5053951;28;20222;-87
2023/06/24 11:32:50;;;;;;;7.68;4.25;;;25.00;99.90;;;;;;5072155;28;20186;-88
2023/06/24 11:35:17;;;;;;;6.38;3.90;;;24.80;99.90;;;;;;5054074;28;20218;-88
2023/06/24 11:37:47;;;;;;;7.57;4.20;;;24.50;99.90;;;;;;5070933;28;20198;-87
2023/06/24 11:40:19;;;;;;;8.60;4.40;;;24.50;99.90;;;;;;5071600;28;20210;-87
2023/06/24 11:42:54;;;;;;;7.90;4.40;;;24.30;99.90;;;;;;5055949;28;20703;-84
2023/06/24 11:45:22;;;;;;;6.18;4.38;;;24.20;99.90;;;;;;5070611;28;20652;-83
2023/06/24 11:47:49;;;;;;;7.45;4.13;;;24.30;99.90;;;;;;5054992;28;20237;-86
2023/06/24 11:50:16;;;;;;;8.45;5.00;;;24.30;99.90;;;;;;5072903;28;20214;-86
2023/06/24 11:52:50;;;;;;;5.85;4.53;;;24.40;99.90;;;;;;5076192;28;20198;-86
2023/06/24 11:55:23;;;;;;;7.60;4.93;;;24.40;99.90;;;;;;5075580;28;20209;-87
2023/06/24 11:58:05;;;;;;;6.25;4.60;;;24.10;99.90;;;;;;5074575;28;20186;-87
2023/06/24 12:00:44;;;;;;;7.80;4.53;;;24.20;99.90;;;;;;5073953;28;20252;-81
2023/06/24 12:03:12;;;;;;;8.63;4.65;;;24.20;99.90;;;;;;5075588;28;20236;-80
2023/06/24 12:05:45;;;;;;;6.32;4.55;;;23.80;99.90;;;;;;5057441;28;20271;-81
2023/06/24 12:08:15;;;;;;;7.78;4.75;;;23.80;99.90;;;;;;5057784;28;20641;-82
2023/06/24 12:10:44;;;;;;;7.45;4.90;;;24.00;99.90;;;;;;5057584;28;20670;-80
2023/06/24 12:13:12;;;;;;;10.20;4.65;;;23.90;99.90;;;;;;5073892;28;20213;-77
2023/06/24 12:15:39;;;;;;;6.67;4.80;;;23.60;99.90;;;;;;5073733;28;20214;-78
2023/06/24 12:18:07;;;;;;;9.05;4.75;;;23.60;99.90;;;;;;5075093;28;20190;-81
2023/06/24 12:20:36;;;;;;;7.28;4.50;;;23.70;99.90;;;;;;5073768;28;20233;-80
2023/06/24 12:23:05;;;;;;;8.10;4.80;;;23.80;99.90;;;;;;5057374;28;20264;-80
2023/06/24 12:25:32;;;;;;;7.00;4.65;;;23.60;99.90;;;;;;5073617;28;20214;-82
2023/06/24 12:27:59;;;;;;;7.83;5.10;;;23.50;99.90;;;;;;5073496;28;20290;-81
2023/06/24 12:30:27;;;;;;;9.43;4.60;;;23.50;99.90;;;;;;5073251;28;20245;-84
2023/06/24 12:32:54;;;;;;;6.28;4.88;;;23.40;99.90;;;;;;5073381;28;20680;-83
2023/06/24 12:35:25;;;;;;;10.00;5.20;;;23.30;99.90;;;;;;5056669;28;20566;-86
2023/06/24 12:37:52;;;;;;;9.67;5.03;;;23.20;99.90;;;;;;5073680;28;20198;-90
2023/06/24 12:40:19;;;;;;;9.00;5.13;;;23.00;99.90;;;;;;5056870;28;20567;-80
2023/06/24 12:42:46;;;;;;;8.53;5.07;;;22.90;99.90;;;;;;5074545;28;20252;-83
2023/06/24 12:45:13;;;;;;;7.40;5.10;;;22.90;99.90;;;;;;5056700;28;20241;-84
2023/06/24 12:47:40;;;;;;;7.67;4.90;;;23.00;99.90;;;;;;5073014;28;20316;-83
2023/06/24 12:50:08;;;;;;;6.20;4.83;;;22.90;99.90;;;;;;5072903;28;20214;-86
2023/06/24 12:52:36;;;;;;;7.20;4.67;;;22.80;99.90;;;;;;5072907;28;20259;-84